Time;durP1;ratioP1;P1;durP2;ratioP2;P2;SDS_P1;SDS_P2;PMS_P1;PMS_P2;Temp;Humidity;BMP_temperature;BMP_pressure;BME280_temperature;BME280_humidity;BME280_pressure;Samples;Min_cycle;Max_cycle;Signal;HPM_P1;HPM_P2
2022/01/28 00:01:26;;;;;;;28.35;13.43;;;;;;;-7.38;100.00;95423.56;5041160;28;20450;-47
2022/01/28 00:04:01;;;;;;;30.10;16.88;;;;;;;-7.39;100.00;95426.22;5040233;28;20079;-47
2022/01/28 00:06:28;;;;;;;34.97;17.30;;;;;;;-7.36;100.00;95433.59;5042911;28;20116;-47
2022/01/28 00:08:55;;;;;;;33.75;20.50;;;;;;;-7.42;100.00;95446.66;5040174;28;20414;-48
2022/01/28 00:11:22;;;;;;;31.55;17.13;;;;;;;-7.44;100.00;95448.50;5039229;28;20049;-47
2022/01/28 00:13:55;;;;;;;32.30;20.13;;;;;;;-7.45;100.00;95439.25;5042790;28;20048;-48
2022/01/28 00:16:56;;;;;;;40.63;19.15;;;;;;;-7.57;100.00;95438.41;5044205;28;20041;-48
2022/01/28 00:38:53;;;;;;;26.17;13.05;;;;;;;-7.52;100.00;95426.25;5042372;28;20133;-47
2022/01/28 00:41:13;;;;;;;22.40;11.85;;;;;;;-7.50;100.00;95415.09;5041514;28;20510;-47
2022/01/28 00:43:41;;;;;;;27.52;13.65;;;;;;;-7.53;100.00;95415.28;5042904;28;20040;-48
2022/01/28 00:46:08;;;;;;;20.33;10.40;;;;;;;-7.67;100.00;95407.84;5042540;28;20032;-47
2022/01/28 00:48:35;;;;;;;18.50;10.07;;;;;;;-7.79;100.00;95403.66;5044840;28;20041;-47
2022/01/28 00:51:02;;;;;;;19.02;12.57;;;;;;;-7.86;100.00;95404.97;5041711;28;20582;-47
2022/01/28 00:53:28;;;;;;;20.00;9.35;;;;;;;-7.92;100.00;95403.69;5042445;28;20430;-49
2022/01/28 00:55:57;;;;;;;23.20;12.93;;;;;;;-7.95;100.00;95406.41;5044170;28;20045;-51
2022/01/28 00:58:24;;;;;;;27.80;10.82;;;;;;;-7.97;100.00;95396.38;5044731;28;20577;-47
2022/01/28 01:00:51;;;;;;;22.23;10.45;;;;;;;-8.03;100.00;95381.66;5047917;28;20052;-47
2022/01/28 01:03:18;;;;;;;13.45;10.57;;;;;;;-7.91;100.00;95385.03;5045264;28;20809;-49
2022/01/28 01:05:45;;;;;;;19.55;10.60;;;;;;;-7.96;100.00;95377.78;5043055;28;20119;-49
2022/01/28 01:08:12;;;;;;;27.00;10.90;;;;;;;-8.16;100.00;95358.88;5043120;28;21636;-51
2022/01/28 01:10:39;;;;;;;23.88;12.20;;;;;;;-8.04;100.00;95374.16;5042591;28;20226;-47
2022/01/28 01:13:06;;;;;;;25.42;13.52;;;;;;;-8.09;100.00;95374.47;5041210;28;20060;-49
2022/01/28 01:15:38;;;;;;;29.35;12.27;;;;;;;-8.08;100.00;95368.50;5042201;28;20052;-47
2022/01/28 01:18:19;;;;;;;32.80;13.60;;;;;;;-8.07;100.00;95370.09;5042492;28;20423;-48
2022/01/28 01:23:27;;;;;;;20.67;11.73;;;;;;;-8.04;100.00;95362.31;5041552;28;20052;-47
2022/01/28 01:26:04;;;;;;;24.92;11.93;;;;;;;-8.07;100.00;95365.88;5044238;28;22314;-48
2022/01/28 01:28:36;;;;;;;30.70;12.15;;;;;;;-8.11;100.00;95354.34;5042156;28;20434;-49
2022/01/28 01:31:05;;;;;;;19.52;11.32;;;;;;;-8.22;100.00;95355.97;5041666;28;20059;-48
2022/01/28 01:33:39;;;;;;;21.30;10.68;;;;;;;-8.33;100.00;95329.72;5041476;28;20119;-51
2022/01/28 01:36:06;;;;;;;13.40;7.95;;;;;;;-8.22;100.00;95340.81;5041503;28;20049;-49
2022/01/28 01:38:36;;;;;;;13.63;9.52;;;;;;;-8.29;100.00;95336.16;5043880;28;20053;-47
2022/01/28 01:41:08;;;;;;;14.43;10.25;;;;;;;-8.32;100.00;95336.38;5043041;28;20049;-47
2022/01/28 01:44:07;;;;;;;17.17;9.32;;;;;;;-8.37;100.00;95338.41;5041186;28;20052;-48
2022/01/28 01:52:20;;;;;;;15.18;10.38;;;;;;;-8.62;100.00;95303.06;5038216;28;20049;-47
2022/01/28 01:54:50;;;;;;;16.75;7.20;;;;;;;-8.58;100.00;95314.59;5041951;28;20061;-48
2022/01/28 01:57:17;;;;;;;16.05;7.18;;;;;;;-8.70;100.00;95327.13;5042435;28;20051;-47
2022/01/28 01:59:44;;;;;;;12.85;8.25;;;;;;;-8.80;100.00;95316.03;5046661;28;20103;-51
2022/01/28 02:02:12;;;;;;;14.00;6.47;;;;;;;-8.75;100.00;95319.06;5045589;28;20052;-47
2022/01/28 02:04:39;;;;;;;15.27;8.90;;;;;;;-8.79;100.00;95321.88;5048962;28;20099;-47
2022/01/28 02:07:06;;;;;;;18.20;9.00;;;;;;;-8.86;100.00;95321.47;5044737;28;20044;-51
2022/01/28 02:09:33;;;;;;;17.45;9.57;;;;;;;-8.82;100.00;95320.38;5051072;28;20123;-49
2022/01/28 02:12:00;;;;;;;16.65;7.97;;;;;;;-8.80;100.00;95315.19;5042146;28;20483;-47
2022/01/28 02:14:27;;;;;;;16.50;8.85;;;;;;;-8.82;100.00;95307.75;5047829;28;20040;-47
2022/01/28 02:16:54;;;;;;;13.05;6.80;;;;;;;-8.86;100.00;95312.19;5043698;28;20048;-49
2022/01/28 02:19:21;;;;;;;14.00;7.55;;;;;;;-8.80;100.00;95308.44;5043850;28;20076;-47
2022/01/28 02:21:51;;;;;;;24.83;9.27;;;;;;;-8.83;100.00;95298.53;5042227;28;20056;-48
2022/01/28 02:24:24;;;;;;;11.95;7.32;;;;;;;-8.84;100.00;95296.91;5043287;28;20091;-48
2022/01/28 02:26:51;;;;;;;13.95;8.13;;;;;;;-8.86;100.00;95301.25;5043101;28;20071;-47
2022/01/28 02:29:27;;;;;;;18.83;9.30;;;;;;;-8.82;100.00;95302.69;5042467;28;20507;-47
2022/01/28 02:31:56;;;;;;;19.38;7.85;;;;;;;-8.81;100.00;95291.66;5042800;28;20073;-48
2022/01/28 02:34:23;;;;;;;10.68;7.45;;;;;;;-8.87;100.00;95284.50;5042850;28;20151;-49
2022/01/28 02:36:50;;;;;;;17.30;8.63;;;;;;;-8.77;100.00;95290.56;5045471;28;20142;-48
2022/01/28 02:39:16;;;;;;;17.40;11.15;;;;;;;-8.71;100.00;95287.63;5042496;28;20045;-50
2022/01/28 02:41:47;;;;;;;21.77;10.88;;;;;;;-8.73;100.00;95297.03;5043107;28;20040;-48
2022/01/28 02:44:35;;;;;;;19.52;12.00;;;;;;;-8.72;100.00;95288.53;5053804;28;20516;-50
2022/01/28 02:47:04;;;;;;;23.98;11.13;;;;;;;-8.66;100.00;95279.75;5042275;28;20055;-49
2022/01/28 02:49:36;;;;;;;24.33;11.23;;;;;;;-8.60;100.00;95276.03;5042387;28;20533;-48
2022/01/28 02:52:04;;;;;;;21.58;13.32;;;;;;;-8.61;100.00;95269.34;5046330;28;20553;-48
2022/01/28 02:54:34;;;;;;;28.02;14.02;;;;;;;-8.64;100.00;95277.94;5047610;28;20037;-50
2022/01/28 02:57:05;;;;;;;20.45;8.18;;;;;;;-8.65;100.00;95282.16;5042213;28;20503;-47
2022/01/28 02:59:32;;;;;;;23.83;10.20;;;;;;;-8.71;100.00;95285.13;5041610;28;20037;-47
2022/01/28 03:01:59;;;;;;;18.85;10.90;;;;;;;-8.78;100.00;95281.38;5041160;28;20569;-48
2022/01/28 03:06:53;;;;;;;22.95;12.50;;;;;;;-8.77;100.00;95280.44;5041503;28;20037;-49
2022/01/28 03:09:21;;;;;;;18.00;8.52;;;;;;;-8.73;100.00;95281.88;5042384;28;20520;-47
2022/01/28 03:12:13;;;;;;;23.77;9.45;;;;;;;-8.74;100.00;95280.25;5046668;28;20045;-47
2022/01/28 03:15:04;;;;;;;19.20;7.95;;;;;;;-8.82;100.00;95277.44;5043611;28;20519;-47
2022/01/28 03:20:31;;;;;;;14.90;9.20;;;;;;;-9.00;100.00;95263.50;5044040;28;20045;-47
2022/01/28 03:22:52;;;;;;;20.38;11.60;;;;;;;-8.89;100.00;95283.81;5041359;28;20033;-47
2022/01/28 03:25:19;;;;;;;23.45;13.52;;;;;;;-8.82;100.00;95272.41;5042408;28;20041;-48
2022/01/28 03:30:13;;;;;;;24.33;11.98;;;;;;;-8.82;100.00;95267.34;5045647;28;20127;-48
2022/01/28 03:32:40;;;;;;;21.75;11.98;;;;;;;-8.77;100.00;95257.72;5049538;28;20144;-47
2022/01/28 03:35:26;;;;;;;19.27;8.23;;;;;;;-8.86;100.00;95251.59;5041525;28;20041;-48
2022/01/28 03:37:59;;;;;;;14.05;7.50;;;;;;;-8.83;100.00;95255.63;5042681;28;20056;-52
2022/01/28 03:40:28;;;;;;;17.73;9.73;;;;;;;-8.84;100.00;95254.00;5043974;28;20135;-47
2022/01/28 03:42:55;;;;;;;22.52;9.32;;;;;;;-8.91;100.00;95252.78;5044274;28;20045;-48
2022/01/28 03:45:22;;;;;;;19.10;9.73;;;;;;;-8.87;100.00;95239.88;5042427;28;20117;-47
2022/01/28 03:47:49;;;;;;;26.92;10.25;;;;;;;-8.90;100.00;95234.22;5047731;28;20041;-50
2022/01/28 03:50:16;;;;;;;12.15;7.70;;;;;;;-8.94;100.00;95228.56;5049392;28;20053;-51
2022/01/28 03:52:44;;;;;;;15.90;8.65;;;;;;;-8.89;100.00;95220.69;5046934;28;20049;-49
2022/01/28 03:55:10;;;;;;;14.68;8.60;;;;;;;-8.84;100.00;95223.69;5054058;28;20984;-50
2022/01/28 03:57:37;;;;;;;20.98;9.68;;;;;;;-8.87;100.00;95214.63;5045413;28;20483;-49
2022/01/28 04:00:06;;;;;;;21.30;13.07;;;;;;;-8.81;100.00;95218.44;5045913;28;20090;-49
2022/01/28 04:02:36;;;;;;;22.50;10.23;;;;;;;-8.78;100.00;95214.94;5048990;28;20037;-46
2022/01/28 04:13:05;;;;;;;19.35;13.23;;;;;;;-8.80;100.00;95209.16;5045008;28;20584;-48
2022/01/28 04:15:49;;;;;;;20.35;10.98;;;;;;;-8.87;100.00;95203.72;5044850;28;20044;-47
2022/01/28 04:18:16;;;;;;;17.42;10.10;;;;;;;-8.82;100.00;95216.03;5046600;28;20441;-47
2022/01/28 04:20:42;;;;;;;28.30;10.52;;;;;;;-8.86;100.00;95210.38;5049994;28;20095;-47
2022/01/28 04:23:09;;;;;;;25.88;10.63;;;;;;;-8.90;100.00;95208.97;5054661;28;20032;-47
2022/01/28 04:25:36;;;;;;;26.95;11.18;;;;;;;-8.90;100.00;95208.97;5043882;28;20127;-48
2022/01/28 04:28:05;;;;;;;21.88;9.73;;;;;;;-8.96;100.00;95204.34;5047784;28;20135;-47
2022/01/28 04:30:32;;;;;;;23.52;8.95;;;;;;;-8.86;100.00;95223.00;5044892;28;20045;-47
2022/01/28 04:32:59;;;;;;;19.05;8.88;;;;;;;-8.90;100.00;95219.06;5044317;28;20033;-47
2022/01/28 04:35:26;;;;;;;10.95;6.05;;;;;;;-9.00;100.00;95211.31;5050925;28;20052;-48
2022/01/28 04:40:26;;;;;;;12.82;8.30;;;;;;;-8.82;100.00;95236.22;5045136;28;20087;-47
2022/01/28 04:43:11;;;;;;;18.77;7.93;;;;;;;-8.89;100.00;95233.31;5046596;28;20047;-47
2022/01/28 05:00:45;;;;;;;30.30;11.15;;;;;;;-9.01;100.00;95241.69;5043474;28;20041;-47
2022/01/28 05:16:48;;;;;;;15.75;8.30;;;;;;;-8.96;100.00;95239.69;5043710;28;20041;-47
2022/01/28 05:27:38;;;;;;;9.88;6.68;;;;;;;-8.88;100.00;95237.44;5046433;28;20049;-46
2022/01/28 05:30:06;;;;;;;19.50;8.23;;;;;;;-8.82;100.00;95232.00;5046928;28;20060;-47
2022/01/28 05:32:33;;;;;;;16.38;8.15;;;;;;;-8.82;100.00;95241.28;5042506;28;20053;-50
2022/01/28 05:35:00;;;;;;;17.75;8.43;;;;;;;-8.87;100.00;95239.06;5043523;28;20506;-47
2022/01/28 05:37:27;;;;;;;17.48;10.10;;;;;;;-8.89;100.00;95238.38;5043399;28;20052;-49
2022/01/28 05:39:58;;;;;;;15.57;8.07;;;;;;;-8.89;100.00;95245.94;5043068;28;20536;-47
2022/01/28 05:42:25;;;;;;;21.45;11.07;;;;;;;-8.92;100.00;95251.19;5043117;28;20029;-50
2022/01/28 05:44:52;;;;;;;17.50;10.02;;;;;;;-8.99;100.00;95244.94;5042054;28;20481;-48
2022/01/28 05:47:21;;;;;;;13.75;9.23;;;;;;;-8.99;100.00;95239.88;5049977;28;20514;-47
2022/01/28 05:49:47;;;;;;;22.55;10.90;;;;;;;-8.92;100.00;95241.88;5047285;28;21732;-48
2022/01/28 05:52:14;;;;;;;15.20;10.45;;;;;;;-8.91;100.00;95237.63;5045341;28;20533;-49
2022/01/28 05:54:41;;;;;;;41.95;14.27;;;;;;;-8.89;100.00;95245.94;5041328;28;20044;-51
2022/01/28 05:57:08;;;;;;;32.08;13.52;;;;;;;-8.91;100.00;95252.78;5046089;28;20402;-49
2022/01/28 05:59:35;;;;;;;16.45;8.57;;;;;;;-8.92;100.00;95256.22;5048845;28;20041;-49
2022/01/28 06:02:02;;;;;;;25.08;8.77;;;;;;;-8.96;100.00;95254.84;5046463;28;20053;-48
2022/01/28 06:04:29;;;;;;;28.45;13.25;;;;;;;-8.96;100.00;95250.59;5046954;28;20067;-50
2022/01/28 06:06:56;;;;;;;15.55;7.50;;;;;;;-8.96;100.00;95248.06;5046895;28;20107;-47
2022/01/28 06:09:23;;;;;;;12.18;5.68;;;;;;;-8.98;100.00;95236.44;5045183;28;20043;-47
2022/01/28 06:11:50;;;;;;;20.80;10.18;;;;;;;-8.95;100.00;95246.34;5044834;28;20106;-48
2022/01/28 06:14:17;;;;;;;20.88;8.65;;;;;;;-8.91;100.00;95252.78;5043078;28;20048;-49
2022/01/28 06:16:43;;;;;;;33.20;10.27;;;;;;;-8.92;100.00;95252.00;5044534;28;20045;-49
2022/01/28 06:19:10;;;;;;;13.82;7.40;;;;;;;-8.85;100.00;95262.50;5042964;28;20396;-48
2022/01/28 06:21:37;;;;;;;28.05;13.05;;;;;;;-8.81;100.00;95258.84;5042727;28;20044;-47
2022/01/28 06:24:05;;;;;;;16.73;7.78;;;;;;;-8.74;100.00;95275.22;5042172;28;20055;-48
2022/01/28 06:26:32;;;;;;;18.70;8.00;;;;;;;-8.68;100.00;95269.75;5040919;28;20045;-49
2022/01/28 06:28:58;;;;;;;19.02;10.43;;;;;;;-8.57;100.00;95270.75;5043623;28;20457;-48
2022/01/28 06:31:25;;;;;;;20.23;11.05;;;;;;;-8.45;100.00;95267.41;5049449;28;20434;-47
2022/01/28 06:33:52;;;;;;;22.60;12.88;;;;;;;-8.35;100.00;95270.88;5048695;28;20041;-47
2022/01/28 06:36:22;;;;;;;29.08;11.85;;;;;;;-8.24;100.00;95282.00;5044020;28;20044;-50
2022/01/28 06:38:49;;;;;;;23.30;13.05;;;;;;;-8.20;100.00;95278.34;5041991;28;20415;-49
2022/01/28 06:41:16;;;;;;;38.28;20.25;;;;;;;-8.03;100.00;95280.53;5042871;28;20526;-46
2022/01/28 06:43:43;;;;;;;40.95;22.05;;;;;;;-7.90;100.00;95278.75;5042798;28;20041;-49
2022/01/28 06:46:10;;;;;;;41.17;19.52;;;;;;;-7.79;100.00;95278.00;5043182;28;20507;-48
2022/01/28 06:48:37;;;;;;;56.78;23.73;;;;;;;-7.61;100.00;95277.63;5044339;28;20079;-48
2022/01/28 06:51:03;;;;;;;70.88;36.03;;;;;;;-7.44;100.00;95284.00;5043318;28;20122;-47
2022/01/28 06:53:30;;;;;;;68.60;31.65;;;;;;;-7.31;100.00;95272.06;5042878;28;20040;-47
2022/01/28 06:55:57;;;;;;;89.53;36.97;;;;;;;-7.16;100.00;95276.03;5043965;28;20043;-47
2022/01/28 06:58:24;;;;;;;95.10;38.58;;;;;;;-7.00;100.00;95287.59;5042411;28;20067;-48
2022/01/28 07:00:51;;;;;;;105.57;42.15;;;;;;;-6.87;100.00;95285.78;5044385;28;20095;-50
2022/01/28 07:03:18;;;;;;;95.28;44.30;;;;;;;-6.76;100.00;95283.25;5042253;28;20036;-50
2022/01/28 07:05:45;;;;;;;98.20;44.75;;;;;;;-6.58;100.00;95283.59;5048310;28;20079;-48
2022/01/28 07:08:12;;;;;;;111.97;47.30;;;;;;;-6.43;100.00;95293.53;5042372;28;20143;-46
2022/01/28 07:10:39;;;;;;;107.47;45.67;;;;;;;-6.30;100.00;95294.22;5041135;28;20422;-49
2022/01/28 07:13:06;;;;;;;116.32;53.28;;;;;;;-6.09;100.00;95296.84;5039670;28;20053;-47
2022/01/28 07:15:33;;;;;;;110.25;49.83;;;;;;;-5.91;100.00;95294.59;5043760;28;20220;-47
2022/01/28 07:18:02;;;;;;;113.57;47.22;;;;;;;-5.79;100.00;95296.19;5044996;28;20502;-50
2022/01/28 07:20:33;;;;;;;105.85;51.08;;;;;;;-5.54;100.00;95301.09;5047694;28;20040;-47
2022/01/28 07:23:01;;;;;;;121.50;53.40;;;;;;;-5.38;100.00;95296.44;5041892;28;20037;-48
2022/01/28 07:25:28;;;;;;;117.50;50.45;;;;;;;-5.15;100.00;95293.78;5041773;28;20049;-47
2022/01/28 07:27:55;;;;;;;95.40;43.55;;;;;;;-4.89;100.00;95302.66;5047273;28;20041;-50
2022/01/28 07:30:22;;;;;;;87.47;41.45;;;;;;;-4.68;100.00;95305.19;5044879;28;20442;-48
2022/01/28 07:32:50;;;;;;;79.07;34.42;;;;;;;-4.50;100.00;95302.88;5046714;28;20041;-47
2022/01/28 07:35:17;;;;;;;95.97;43.88;;;;;;;-4.47;100.00;95297.53;5040505;28;20041;-49
2022/01/28 07:37:45;;;;;;;83.78;36.20;;;;;;;-4.29;100.00;95319.81;5043753;28;20041;-50
2022/01/28 07:40:12;;;;;;;77.03;34.55;;;;;;;-4.15;100.00;95322.03;5049708;28;20041;-47
2022/01/28 07:42:41;;;;;;;73.22;35.10;;;;;;;-4.09;100.00;95320.72;5041444;28;20453;-51
2022/01/28 07:45:10;;;;;;;82.45;33.30;;;;;;;-3.94;100.00;95319.44;5043717;28;20434;-48
2022/01/28 07:47:37;;;;;;;121.28;49.72;;;;;;;-3.93;100.00;95317.69;5043923;28;20048;-50
2022/01/28 07:50:06;;;;;;;102.78;38.00;;;;;;;-3.73;100.00;95321.88;5043355;28;20041;-47
2022/01/28 07:52:33;;;;;;;47.95;21.77;;;;;;;-3.85;100.00;95322.94;5042182;28;20049;-48
2022/01/28 07:55:00;;;;;;;35.78;18.40;;;;;;;-4.16;100.00;95335.69;5042186;28;20503;-51
2022/01/28 07:57:27;;;;;;;37.38;14.85;;;;;;;-4.39;100.00;95329.13;5040268;28;20055;-47
2022/01/28 07:59:54;;;;;;;28.45;10.55;;;;;;;-4.56;100.00;95333.06;5045284;28;20048;-49
2022/01/28 08:02:20;;;;;;;11.07;7.72;;;;;;;-4.61;100.00;95331.72;5044838;28;20041;-49
2022/01/28 08:04:48;;;;;;;23.27;11.18;;;;;;;-4.58;100.00;95325.56;5045390;28;20046;-50
2022/01/28 08:07:15;;;;;;;46.55;17.83;;;;;;;-4.49;100.00;95334.97;5042473;28;20044;-47
2022/01/28 08:09:42;;;;;;;57.45;27.75;;;;;;;-4.24;100.00;95343.16;5041589;28;20091;-49
2022/01/28 08:12:09;;;;;;;49.45;21.13;;;;;;;-3.94;100.00;95354.25;5045252;28;20056;-49
2022/01/28 08:14:36;;;;;;;34.92;15.77;;;;;;;-3.70;100.00;95352.19;5041982;28;20063;-51
2022/01/28 08:17:03;;;;;;;40.40;20.05;;;;;;;-3.46;100.00;95338.28;5040407;28;20052;-49
2022/01/28 08:19:29;;;;;;;39.25;17.65;;;;;;;-3.15;100.00;95333.06;5041361;28;20533;-51
2022/01/28 08:21:57;;;;;;;34.65;15.25;;;;;;;-2.98;100.00;95337.50;5040856;28;20045;-49
2022/01/28 08:24:23;;;;;;;32.75;16.23;;;;;;;-2.76;98.16;95343.28;5039002;28;20514;-52
2022/01/28 08:26:51;;;;;;;29.83;13.90;;;;;;;-2.74;97.55;95320.97;5045142;28;20073;-53
2022/01/28 08:29:18;;;;;;;33.67;15.65;;;;;;;-2.65;96.44;95329.56;5039979;28;20048;-51
2022/01/28 08:31:44;;;;;;;43.83;18.55;;;;;;;-2.58;96.69;95333.97;5043339;28;20817;-49
2022/01/28 08:34:11;;;;;;;26.23;13.00;;;;;;;-2.60;96.18;95328.22;5044983;28;20036;-48
2022/01/28 08:36:38;;;;;;;27.77;13.52;;;;;;;-2.63;95.87;95331.06;5044222;28;20052;-50
2022/01/28 08:39:08;;;;;;;28.58;13.30;;;;;;;-2.64;95.49;95329.44;5049137;28;20041;-48
2022/01/28 08:41:36;;;;;;;32.20;13.30;;;;;;;-2.60;95.67;95324.88;5045539;28;20057;-47
2022/01/28 08:44:03;;;;;;;36.05;17.17;;;;;;;-2.38;95.32;95323.72;5045247;28;20040;-52
2022/01/28 08:46:31;;;;;;;55.40;18.75;;;;;;;-2.22;94.32;95313.75;5051155;28;20047;-49
2022/01/28 08:48:58;;;;;;;41.33;18.10;;;;;;;-2.14;93.30;95316.41;5043838;28;20052;-48
2022/01/28 08:51:25;;;;;;;14.65;5.70;;;;;;;-2.15;93.84;95316.53;5039595;28;20111;-48
2022/01/28 08:53:54;;;;;;;19.63;7.65;;;;;;;-2.12;93.87;95319.63;5041321;28;20099;-50
2022/01/28 08:56:21;;;;;;;43.35;17.83;;;;;;;-1.98;94.55;95304.78;5042571;28;20048;-50
2022/01/28 08:58:48;;;;;;;39.20;18.05;;;;;;;-1.94;93.97;95311.22;5041782;28;20041;-51
2022/01/28 09:01:15;;;;;;;25.35;11.98;;;;;;;-2.08;94.46;95304.03;5048379;28;20055;-51
2022/01/28 09:03:44;;;;;;;29.35;13.35;;;;;;;-2.08;94.79;95298.94;5049448;28;20036;-51
2022/01/28 09:06:11;;;;;;;40.67;14.55;;;;;;;-2.10;94.56;95305.94;5046767;28;20079;-49
2022/01/28 09:08:40;;;;;;;32.72;14.05;;;;;;;-2.04;94.67;95301.03;5040011;28;20041;-48
2022/01/28 09:13:52;;;;;;;32.53;14.88;;;;;;;-1.79;94.06;95309.78;5041421;28;20045;-47
2022/01/28 09:16:21;;;;;;;32.28;13.85;;;;;;;-1.64;95.46;95309.31;5044177;28;20384;-50
2022/01/28 09:18:49;;;;;;;29.38;13.88;;;;;;;-1.39;95.72;95306.06;5044097;28;20094;-49
2022/01/28 09:21:16;;;;;;;26.58;11.23;;;;;;;-1.18;93.22;95307.53;5039537;28;20043;-50
2022/01/28 09:23:46;;;;;;;34.65;15.10;;;;;;;-0.93;93.69;95305.19;5041932;28;20037;-52
2022/01/28 09:26:14;;;;;;;25.27;11.82;;;;;;;-0.82;93.50;95308.28;5043957;28;20045;-48
2022/01/28 09:28:41;;;;;;;31.10;15.48;;;;;;;-0.59;92.83;95316.31;5044594;28;20052;-47
2022/01/28 09:31:08;;;;;;;44.28;16.70;;;;;;;-0.54;90.65;95304.81;5041618;28;20041;-48
2022/01/28 09:33:37;;;;;;;24.75;12.15;;;;;;;-0.39;89.75;95313.56;5040725;28;20036;-49
2022/01/28 09:36:07;;;;;;;27.27;10.52;;;;;;;-0.16;89.31;95316.41;5039167;28;20469;-50
2022/01/28 09:38:34;;;;;;;36.70;13.88;;;;;;;-0.09;89.96;95311.44;5042028;28;20411;-49
2022/01/28 09:41:03;;;;;;;34.25;14.38;;;;;;;0.27;89.46;95313.84;5047813;28;20041;-47
2022/01/28 09:43:30;;;;;;;35.97;13.57;;;;;;;0.60;89.59;95313.97;5043958;28;20044;-48
2022/01/28 09:45:57;;;;;;;33.30;15.30;;;;;;;0.66;87.70;95313.31;5047876;28;20033;-49
2022/01/28 09:48:25;;;;;;;33.42;14.10;;;;;;;0.68;85.56;95311.41;5049275;28;20087;-48
2022/01/28 09:50:52;;;;;;;30.30;14.80;;;;;;;0.53;86.60;95309.44;5045263;28;20047;-47
2022/01/28 09:53:19;;;;;;;21.50;10.68;;;;;;;0.38;87.26;95308.47;5048136;28;20056;-49
2022/01/28 09:55:47;;;;;;;39.03;14.35;;;;;;;0.28;86.89;95312.91;5043774;28;20045;-48
2022/01/28 09:58:15;;;;;;;23.83;10.00;;;;;;;0.25;86.08;95305.50;5043665;28;20065;-48
2022/01/28 10:00:42;;;;;;;34.90;17.08;;;;;;;0.24;85.76;95309.06;5048202;28;20045;-47
2022/01/28 10:03:12;;;;;;;46.28;19.98;;;;;;;0.57;85.28;95313.28;5043454;28;20049;-48
2022/01/28 10:05:50;;;;;;;20.58;9.98;;;;;;;0.79;83.90;95318.78;5050365;28;20120;-49
2022/01/28 10:08:26;;;;;;;30.85;13.90;;;;;;;0.80;83.51;95315.28;5045007;28;20043;-49
2022/01/28 10:11:02;;;;;;;46.95;18.05;;;;;;;0.89;80.41;95318.66;5043025;28;20056;-49
2022/01/28 10:13:40;;;;;;;42.47;17.52;;;;;;;1.13;81.01;95315.28;5043647;28;20041;-49
2022/01/28 10:16:11;;;;;;;51.90;18.95;;;;;;;1.20;81.64;95330.84;5041689;28;20053;-50
2022/01/28 10:18:47;;;;;;;35.08;16.48;;;;;;;1.18;80.76;95323.31;5042568;28;20098;-51
2022/01/28 10:21:27;;;;;;;31.00;12.82;;;;;;;1.34;80.19;95328.44;5045274;28;20499;-53
2022/01/28 10:24:07;;;;;;;35.20;13.75;;;;;;;1.18;79.63;95317.38;5035696;28;20136;-52
2022/01/28 10:26:40;;;;;;;35.63;13.55;;;;;;;1.28;80.10;95323.97;5038024;28;20072;-52
2022/01/28 10:29:12;;;;;;;29.63;13.00;;;;;;;1.23;79.59;95331.34;5037252;28;20041;-51
2022/01/28 10:31:47;;;;;;;37.83;17.60;;;;;;;1.26;79.86;95325.06;5040282;28;22207;-49
2022/01/28 10:34:40;;;;;;;33.88;15.65;;;;;;;1.24;79.07;95332.97;5039761;28;20059;-52
2022/01/28 10:37:22;;;;;;;43.15;17.50;;;;;;;1.11;79.41;95323.13;5048327;28;20540;-51
2022/01/28 10:39:57;;;;;;;31.88;16.58;;;;;;;0.98;80.13;95316.91;5039531;28;20064;-49
2022/01/28 10:42:50;;;;;;;34.20;13.02;;;;;;;0.98;80.45;95322.81;5041299;28;20051;-51
2022/01/28 10:45:20;;;;;;;53.08;21.15;;;;;;;0.82;81.98;95323.59;5041739;28;20049;-49
2022/01/28 10:47:56;;;;;;;47.45;23.80;;;;;;;1.00;81.99;95317.53;5045203;28;20508;-48
2022/01/28 10:50:25;;;;;;;50.35;21.80;;;;;;;0.91;81.44;95312.38;5041700;28;20059;-53
2022/01/28 10:53:19;;;;;;;25.95;15.32;;;;;;;0.94;81.12;95319.78;5040997;28;20041;-50
2022/01/28 10:55:49;;;;;;;37.50;18.35;;;;;;;1.13;81.09;95320.41;5041427;28;20487;-49
2022/01/28 10:58:18;;;;;;;36.60;17.50;;;;;;;1.17;80.18;95311.47;5042421;28;20117;-49
2022/01/28 11:00:50;;;;;;;57.53;22.60;;;;;;;1.10;80.06;95310.50;5050132;28;20041;-52
2022/01/28 11:03:18;;;;;;;49.70;20.25;;;;;;;1.16;79.66;95314.19;5041369;28;20844;-50
2022/01/28 11:05:45;;;;;;;37.10;15.15;;;;;;;1.13;79.46;95312.72;5042644;28;20398;-51
2022/01/28 11:08:14;;;;;;;44.13;18.92;;;;;;;0.94;79.81;95304.38;5042131;28;20442;-49
2022/01/28 11:10:42;;;;;;;51.95;17.38;;;;;;;0.94;80.26;95317.22;5041297;28;20048;-48
2022/01/28 11:13:09;;;;;;;44.95;18.60;;;;;;;1.01;81.00;95308.88;5040060;28;20045;-50
2022/01/28 11:15:38;;;;;;;44.17;18.90;;;;;;;0.99;80.88;95297.97;5041288;28;20049;-51
2022/01/28 11:18:08;;;;;;;53.45;17.98;;;;;;;1.10;80.65;95305.38;5042660;28;20128;-48
2022/01/28 11:20:54;;;;;;;31.75;14.85;;;;;;;1.21;81.08;95306.81;5041393;28;20044;-50
2022/01/28 11:23:36;;;;;;;41.60;19.58;;;;;;;1.24;80.83;95307.28;5040852;28;20511;-49
2022/01/28 11:26:21;;;;;;;38.85;19.23;;;;;;;1.37;81.42;95300.84;5041213;28;20071;-51
2022/01/28 11:28:51;;;;;;;37.72;18.33;;;;;;;1.44;81.48;95307.75;5043121;28;20052;-47
2022/01/28 11:31:56;;;;;;;44.78;20.08;;;;;;;1.46;80.87;95305.00;5041509;28;20056;-48
2022/01/28 11:34:23;;;;;;;46.95;25.13;;;;;;;1.52;80.94;95304.38;5047869;28;20758;-47
2022/01/28 11:36:56;;;;;;;45.35;22.90;;;;;;;1.61;81.11;95308.53;5040384;28;20132;-47
2022/01/28 11:39:33;;;;;;;60.90;20.10;;;;;;;1.65;80.18;95309.78;5042230;28;20683;-47
2022/01/28 11:42:08;;;;;;;49.80;20.52;;;;;;;1.56;80.42;95305.63;5040297;28;20392;-47
2022/01/28 11:44:50;;;;;;;49.00;22.42;;;;;;;1.54;80.53;95294.72;5042779;28;20422;-52
2022/01/28 11:47:27;;;;;;;42.10;20.33;;;;;;;1.47;80.53;95291.22;5039275;28;20045;-50
2022/01/28 11:50:14;;;;;;;40.20;19.67;;;;;;;1.46;81.41;95294.72;5044380;28;20537;-45
2022/01/28 11:52:48;;;;;;;39.78;18.13;;;;;;;1.43;81.37;95292.50;5045769;28;20045;-48
2022/01/28 11:55:15;;;;;;;45.40;18.33;;;;;;;1.38;81.31;95281.94;5041449;28;20041;-50
2022/01/28 11:57:57;;;;;;;36.75;17.20;;;;;;;1.32;82.14;95279.03;5042180;28;20041;-48
2022/01/28 12:00:25;;;;;;;49.13;19.70;;;;;;;1.34;82.51;95282.25;5048301;28;20040;-46
2022/01/28 12:02:53;;;;;;;39.60;16.95;;;;;;;1.42;83.25;95283.19;5041496;28;20127;-46
2022/01/28 12:05:30;;;;;;;37.53;17.30;;;;;;;1.47;82.40;95283.50;5041437;28;20029;-46
2022/01/28 12:08:03;;;;;;;57.25;22.98;;;;;;;1.48;82.74;95277.44;5045860;28;20063;-46
2022/01/28 12:10:33;;;;;;;65.20;29.30;;;;;;;1.66;82.50;95270.31;5045172;28;20040;-49
2022/01/28 12:13:04;;;;;;;56.25;24.92;;;;;;;1.79;82.12;95263.88;5044456;28;20060;-47
2022/01/28 12:16:01;;;;;;;37.50;18.48;;;;;;;1.92;80.88;95266.69;5047818;28;20036;-51
2022/01/28 12:18:43;;;;;;;40.90;20.40;;;;;;;2.07;80.62;95262.47;5048774;28;20040;-46
2022/01/28 12:21:31;;;;;;;78.00;31.50;;;;;;;2.20;79.81;95258.56;5045314;28;20617;-49
2022/01/28 12:24:20;;;;;;;108.95;41.10;;;;;;;2.28;79.55;95261.09;5044138;28;20033;-46
2022/01/28 12:27:08;;;;;;;73.63;34.67;;;;;;;2.35;79.20;95259.44;5045700;28;20049;-46
2022/01/28 12:29:42;;;;;;;48.80;22.15;;;;;;;2.43;78.96;95256.84;5038941;28;20048;-49
2022/01/28 12:32:10;;;;;;;48.47;22.52;;;;;;;2.41;79.12;95248.50;5039089;28;20511;-46
2022/01/28 12:34:45;;;;;;;50.67;20.95;;;;;;;2.48;79.64;95246.84;5040124;28;20041;-45
2022/01/28 12:37:13;;;;;;;57.95;23.23;;;;;;;2.58;79.91;95249.19;5040888;28;20095;-47
2022/01/28 12:39:51;;;;;;;28.25;13.90;;;;;;;2.61;78.37;95253.19;5042804;28;20047;-47
2022/01/28 12:42:24;;;;;;;36.38;16.98;;;;;;;2.62;78.36;95254.78;5038592;28;20051;-47
2022/01/28 12:44:54;;;;;;;31.20;14.50;;;;;;;2.69;78.93;95255.72;5042276;28;20044;-47
2022/01/28 12:47:22;;;;;;;36.58;13.25;;;;;;;2.69;79.50;95255.72;5042875;28;20586;-47
2022/01/28 12:49:56;;;;;;;33.40;17.10;;;;;;;2.75;79.92;95249.09;5040758;28;20041;-46
2022/01/28 12:52:23;;;;;;;13.23;7.28;;;;;;;2.80;81.70;95242.44;5043373;28;20055;-47
2022/01/28 12:54:50;;;;;;;12.00;5.80;;;;;;;2.94;82.37;95237.53;5040121;28;20037;-46
2022/01/28 12:57:20;;;;;;;13.73;5.57;;;;;;;3.06;82.31;95242.09;5042032;28;20045;-48